Data for 08/14/2018

Time Sea-Level Adjusted Pressure Absolute Pressure Temperature Relative Humidity Dew Point   
(mb) (inHg) (mb) (inHg) (C) (F) (%) (C) (F)
00:05 1021 30.15 850 25.1 16.7 62 48 5.7 42.2
00:10 1021 30.15 850 25.1 16.6 61.9 48 5.6 42.1
00:15 1021 30.15 850 25.1 16.6 61.9 48 5.6 42.1
00:20 1021 30.15 850 25.1 16.6 61.9 48 5.6 42.2
00:25 1021 30.15 850 25.1 16.6 61.8 48 5.6 42.1
00:30 1021 30.15 850 25.1 16.5 61.8 48 5.5 42
00:35 1021 30.15 850 25.1 16.5 61.7 48 5.6 42.1
00:40 1021 30.15 850 25.1 16.4 61.6 48 5.6 42
00:45 1021 30.15 850 25.1 16.4 61.5 49 5.6 42.2
00:50 1021 30.15 850 25.1 16.3 61.3 49 5.6 42.1
00:55 1021 30.15 850 25.1 16.2 61.2 49 5.6 42.1
01:00 1021 30.15 850 25.1 16.2 61.1 49 5.6 42.1
01:05 1021 30.15 850 25.1 16.1 60.9 49 5.6 42.1
01:10 1021 30.15 850 25.1 16 60.9 50 5.7 42.2
01:15 1021 30.15 850 25.1 15.9 60.6 50 5.6 42.1
01:20 1021 30.15 850 25.1 15.9 60.5 50 5.5 41.9
01:25 1021 30.15 850 25.1 15.8 60.5 50 5.5 41.9
01:30 1021 30.15 850 25.1 15.8 60.4 50 5.5 41.8
01:35 1021 30.15 850 25.1 15.7 60.2 51 5.5 42
01:40 1021 30.15 850 25.1 15.6 60.1 51 5.5 41.9
01:45 1021 30.15 850 25.1 15.5 60 51 5.4 41.8
01:50 1021 30.15 850 25.1 15.4 59.8 51 5.5 42
01:55 1021 30.15 850 25.1 15.3 59.6 51 5.5 41.8
02:00 1021 30.15 850 25.1 15.3 59.5 51 5.4 41.8
02:05 1021 30.15 850 25.1 15.3 59.5 51 5.4 41.7
02:10 1021 30.15 850 25.1 15.3 59.5 51 5.3 41.6
02:15 1021 30.15 850 25.1 15.3 59.5 51 5.4 41.6
02:20 1021 30.15 850 25.1 15.2 59.4 51 5.3 41.6
02:25 1021 30.15 850 25.1 15.2 59.4 51 5.4 41.6
02:30 1021 30.15 850 25.1 15.2 59.3 52 5.3 41.6
02:35 1021 30.15 850 25.1 15.1 59.1 52 5.3 41.5
02:40 1021 30.15 850 25.1 15 59 52 5.3 41.5
02:45 1021 30.15 850 25.1 15 59 52 5.2 41.3
02:50 1021 30.15 850 25.1 15 59.1 51 5.1 41.2
02:55 1021 30.15 850 25.1 15.1 59.2 51 5.2 41.3
03:00 1021 30.15 850 25.1 15 59.1 51 5.1 41.2
03:05 1021 30.15 850 25.1 15 59.1 51 5.2 41.3
03:10 1021 30.15 850 25.1 15.1 59.1 51 5.2 41.3
03:15 1021 30.15 850 25.1 15 59 51 5.1 41.2
03:20 1021 30.15 850 25.1 14.9 58.9 52 5.1 41.2
03:25 1021 30.15 850 25.1 14.9 58.8 51 5.1 41.1
03:30 1021 30.15 850 25.1 14.9 58.7 51 4.9 40.8
03:35 1021 30.15 850 25.1 14.9 58.8 51 5 40.9
03:40 1021 30.15 850 25.1 14.9 58.7 51 4.9 40.9
03:45 1021 30.15 850 25.1 14.8 58.7 51 5 41
03:50 1021 30.15 850 25.1 14.8 58.6 51 4.9 40.8
03:55 1021 30.15 850 25.1 14.7 58.5 52 5 41
04:00 1021 30.15 850 25.1 14.7 58.4 52 4.9 40.9
04:05 1021 30.15 850 25.1 14.6 58.3 52 4.9 40.9
04:10 1021 30.15 850 25.1 14.5 58.1 52 4.9 40.9
04:15 1021 30.15 850 25.1 14.5 58 53 4.9 40.9
04:20 1021 30.15 850 25.1 14.4 57.9 53 4.9 40.8
04:25 1021 30.15 850 25.1 14.4 57.9 52 4.9 40.7
04:30 1021 30.15 850 25.1 14.4 58 52 4.9 40.8
04:35 1021 30.15 850 25.1 14.4 57.9 52 4.9 40.7
04:40 1021 30.15 850 25.1 14.3 57.7 53 4.9 40.8
04:45 1021 30.15 850 25.1 14.2 57.6 53 4.9 40.8
04:50 1021 30.15 850 25.1 14.1 57.4 53 4.8 40.7
04:55 1021 30.15 850 25.1 14.1 57.3 54 4.9 40.9
05:00 1021 30.15 850 25.1 13.9 57.1 54 4.9 40.8
05:05 1021 30.15 850 25.1 13.9 57 55 5 40.9
05:10 1021 30.15 850 25.1 13.8 56.8 55 4.9 40.8
05:15 1021 30.15 850 25.1 13.8 56.8 55 4.9 40.8
05:20 1021 30.15 850 25.1 13.7 56.7 55 4.9 40.8
05:25 1021 30.15 850 25.1 13.7 56.7 55 4.9 40.8
05:30 1021 30.15 850 25.1 13.6 56.6 55 4.9 40.9
05:35 1021 30.15 850 25.1 13.6 56.4 56 4.9 40.9
05:40 1020 30.12 850 25.1 13.4 56.2 56 4.9 40.8
05:45 1021 30.15 850 25.1 13.4 56.1 56 4.8 40.7
05:50 1021 30.15 850 25.1 13.4 56 56 4.9 40.8
05:55 1020 30.12 850 25.1 13.3 55.9 57 4.9 40.8
06:00 1020 30.12 850 25.1 13.3 55.9 57 4.9 40.9
06:05 1020 30.12 850 25.1 13.2 55.7 57 5 40.9
06:10 1021 30.15 850 25.1 13.1 55.5 57 4.8 40.7
06:15 1021 30.15 850 25.1 13.1 55.5 57 4.9 40.8
06:20 1021 30.15 850 25.1 13 55.4 58 4.9 40.8
06:25 1021 30.15 850 25.1 13 55.4 57 4.8 40.7
06:30 1021 30.15 850 25.1 13 55.4 58 4.9 40.8
06:35 1021 30.15 850 25.1 12.8 55.1 59 5 41
06:40 1021 30.15 850 25.1 12.5 54.5 60 5.1 41.2
06:45 1021 30.15 850 25.1 12.5 54.4 60 5 41.1
06:50 1021 30.15 850 25.1 12.5 54.5 61 5.3 41.5
06:55 1021 30.15 850 25.1 12.4 54.4 62 5.4 41.7
07:00 1021 30.15 850 25.1 12.4 54.4 62 5.4 41.7
07:05 1021 30.15 850 25.1 12.6 54.7 62 5.5 41.8
07:10 1021 30.15 850 25.1 12.8 55 61 5.5 41.9
07:15 1021 30.15 850 25.1 12.9 55.1 61 5.5 42
07:20 1021 30.15 850 25.1 13 55.4 60 5.5 41.9
07:25 1021 30.15 850 25.1 12.9 55.2 61 5.7 42.2
07:30 1021 30.15 850 25.1 12.4 54.4 62 5.5 41.8
07:35 1021 30.15 850 25.1 12.3 54.1 62 5.4 41.7
07:40 1021 30.15 850 25.1 12.3 54.1 63 5.4 41.7
07:45 1021 30.15 850 25.1 12.4 54.3 63 5.6 42
07:50 1021 30.15 850 25.1 12.5 54.4 62 5.4 41.8
07:55 1021 30.15 850 25.1 12.7 54.9 61 5.4 41.7
08:00 1021 30.15 850 25.1 13.1 55.6 60 5.6 42.1
08:05 1021 30.15 850 25.1 13.4 56.1 59 5.6 42.1
08:10 1021 30.15 850 25.1 13.3 56 59 5.6 42.1
08:15 1021 30.15 850 25.1 13.2 55.8 59 5.5 42
08:20 1021 30.15 850 25.1 13.3 55.9 59 5.5 41.9
08:25 1021 30.15 851 25.13 13.4 56.1 60 5.8 42.4
08:30 1021 30.15 851 25.13 13.6 56.5 60 6 42.7
08:35 1021 30.15 851 25.13 13.6 56.4 59 5.8 42.4
08:40 1021 30.15 851 25.13 13.8 56.8 59 5.9 42.6
08:45 1021 30.15 851 25.13 13.8 56.9 58 5.8 42.4
08:50 1021 30.15 851 25.13 14.3 57.7 56 5.8 42.5
08:55 1021 30.15 851 25.13 14.6 58.2 56 6.1 42.9
09:00 1021 30.15 851 25.13 14.9 58.8 55 6.1 42.9
09:05 1021 30.15 851 25.13 15.5 59.9 53 6 42.7
09:10 1021 30.15 851 25.13 16.1 61 51 6.1 42.9
09:15 1021 30.15 851 25.13 16.4 61.5 50 6.1 43
09:20 1021 30.15 851 25.13 16.7 62.1 50 6.4 43.5
09:25 1021 30.15 851 25.13 17 62.6 50 6.5 43.8
09:30 1021 30.15 851 25.13 16.6 61.8 50 6.2 43.1
09:35 1021 30.15 851 25.13 17.1 62.8 49 6.4 43.5
09:40 1021 30.15 851 25.13 17.3 63.1 48 6.3 43.3
09:45 1021 30.15 851 25.13 18.1 64.5 46 6.3 43.3
09:50 1021 30.15 851 25.13 18.1 64.5 48 7 44.6
09:55 1021 30.15 851 25.13 17.3 63.1 50 6.9 44.4
10:00 1021 30.15 851 25.13 17.4 63.3 50 6.9 44.5
10:05 1021 30.15 851 25.13 17.4 63.2 49 6.6 43.8
10:10 1021 30.15 851 25.13 17.9 64.2 48 6.9 44.4
10:15 1021 30.15 851 25.13 17.2 63 48 6.3 43.3
10:20 1021 30.15 851 25.13 17.9 64.3 47 6.7 44
10:25 1021 30.15 851 25.13 18.3 64.9 46 6.5 43.7
10:30 1021 30.15 851 25.13 18.9 66.1 45 7 44.5
10:35 1021 30.15 851 25.13 19 66.2 45 6.9 44.3
10:40 1021 30.15 851 25.13 19.1 66.4 44 6.6 43.9
10:45 1021 30.15 851 25.13 19.4 66.9 43 6.6 43.8
10:50 1021 30.15 851 25.13 18.6 65.6 47 7.1 44.8
10:55 1021 30.15 851 25.13 18.5 65.3 44 6.2 43.2
11:00 1021 30.15 851 25.13 18.8 65.8 44 6.5 43.7
11:05 1021 30.15 850 25.1 19.5 67.1 42 6.5 43.8
11:10 1021 30.15 850 25.1 19.7 67.5 42 6.7 44.1
11:15 1021 30.15 850 25.1 19.7 67.5 43 7 44.6
11:20 1021 30.15 850 25.1 19.5 67.2 43 6.7 44
11:25 1021 30.15 850 25.1 19.7 67.4 44 7.1 44.8
11:30 1021 30.15 850 25.1 19.3 66.8 43 6.7 44
11:35 1021 30.15 850 25.1 19.8 67.6 42 6.7 44.1
11:40 1021 30.15 850 25.1 19.7 67.5 42 6.5 43.7
11:45 1021 30.15 850 25.1 20.3 68.6 39 6.2 43.2
11:50 1021 30.15 850 25.1 20.9 69.6 40 6.9 44.4
11:55 1021 30.15 850 25.1 20.7 69.2 41 7.2 44.9
12:00 1021 30.15 850 25.1 20.7 69.3 40 6.7 44.1
12:05 1021 30.15 850 25.1 21.6 70.8 37 6.5 43.8
12:10 1021 30.15 850 25.1 21.7 71.1 37 6.4 43.5
12:15 1021 30.15 850 25.1 21.6 70.9 38 6.7 44.1
12:20 1021 30.15 850 25.1 21.6 70.9 36 5.9 42.7
12:25 1021 30.15 850 25.1 21.2 70.2 39 6.9 44.5
12:30 1021 30.15 850 25.1 21.3 70.3 38 6.7 44.1
12:35 1021 30.15 850 25.1 21.8 71.2 37 6.5 43.7
12:40 1021 30.15 850 25.1 21.5 70.7 36 5.8 42.5
12:45 1021 30.15 850 25.1 22.2 72 34 5.9 42.6
12:50 1021 30.15 850 25.1 22.5 72.4 34 6 42.8
12:55 1021 30.15 850 25.1 22.7 72.9 34 6.3 43.3
13:00 1021 30.15 850 25.1 23.3 74 33 6.5 43.7
13:05 1021 30.15 850 25.1 23.2 73.8 34 6.7 44
13:10 1021 30.15 850 25.1 23.7 74.6 33 6.7 44.1
13:15 1021 30.15 850 25.1 23.2 73.7 35 7 44.7
13:20 1020 30.12 850 25.1 23.6 74.4 32 6.3 43.3
13:25 1020 30.12 850 25.1 23.8 74.8 33 6.6 43.8
13:30 1020 30.12 850 25.1 23.7 74.7 33 6.7 44.1
13:35 1020 30.12 850 25.1 23.8 74.8 32 6.5 43.7
13:40 1020 30.12 850 25.1 23.9 75.1 32 6.5 43.6
13:45 1020 30.12 849 25.07 24.1 75.4 32 6.6 43.9
13:50 1020 30.12 849 25.07 24.2 75.6 32 6.5 43.7
13:55 1020 30.12 849 25.07 23.9 75 33 7 44.6
14:00 1020 30.12 849 25.07 23.9 75 33 7 44.6
14:05 1020 30.12 849 25.07 24.6 76.2 31 6.4 43.5
14:10 1020 30.12 849 25.07 24.5 76.1 31 6.6 44
14:15 1020 30.12 849 25.07 24.5 76.1 32 7 44.7
14:20 1020 30.12 849 25.07 24.2 75.6 32 6.8 44.2
14:25 1020 30.12 849 25.07 24.8 76.6 32 7.1 44.7
14:30 1020 30.12 849 25.07 24.8 76.7 30 6.5 43.6
14:35 1020 30.12 849 25.07 25.1 77.2 30 6.7 44
14:40 1020 30.12 849 25.07 25.1 77.1 27 4.8 40.7
14:45 1020 30.12 849 25.07 25 77 29 5.9 42.6
14:50 1020 30.12 849 25.07 24.8 76.6 28 5.5 42
14:55 1020 30.12 849 25.07 25.2 77.3 27 4.9 40.8
15:00 1020 30.12 849 25.07 25.1 77.2 25 4 39.2
15:05 1020 30.12 849 25.07 26 78.8 24 4.4 39.8
15:10 1020 30.12 849 25.07 25.6 78 26 4.8 40.6
15:15 1020 30.12 849 25.07 24.6 76.3 27 4.8 40.7
15:20 1020 30.12 849 25.07 25.6 78.2 22 2.7 36.9
15:25 1020 30.12 849 25.07 26.2 79.1 24 4.2 39.5
15:30 1019 30.09 849 25.07 25.8 78.4 24 4.2 39.6
15:35 1019 30.09 849 25.07 25.4 77.7 25 4.1 39.4
15:40 1019 30.09 849 25.07 25.8 78.5 24 3.8 38.9
15:45 1019 30.09 849 25.07 25.6 78 24 3.5 38.3
15:50 1019 30.09 849 25.07 25.5 78 24 3.6 38.5
15:55 1019 30.09 849 25.07 25.7 78.2 22 2.8 37.1
16:00 1019 30.09 849 25.07 25.9 78.7 21 2.1 35.9
16:05 1019 30.09 849 25.07 25.2 77.4 23 2.9 37.3
16:10 1019 30.09 848 25.04 25.8 78.4 23 3.2 37.7
16:15 1019 30.09 848 25.04 26.7 80 21 3 37.4
16:20 1019 30.09 848 25.04 26.9 80.4 20 2.4 36.3
16:25 1019 30.09 848 25.04 25.9 78.5 21 1.9 35.4
16:30 1019 30.09 848 25.04 26 78.8 21 2.4 36.3
16:35 1019 30.09 848 25.04 26.1 79 20 1.8 35.2
16:40 1019 30.09 848 25.04 26.5 79.8 18 0.6 33.1
16:45 1019 30.09 848 25.04 26.4 79.5 18 0.5 32.9
16:50 1019 30.09 848 25.04 26.5 79.7 17 0.1 32.1
16:55 1019 30.09 848 25.04 26.6 80 18 0.7 33.2
17:00 1019 30.09 848 25.04 26.9 80.4 17 -0.2 31.6
17:05 1019 30.09 848 25.04 27.1 80.8 17 0.5 32.9
17:10 1019 30.09 848 25.04 26.7 80.1 17 -0 31.9
17:15 1019 30.09 848 25.04 26.6 79.9 17 -0.4 31.2
17:20 1019 30.09 848 25.04 26.7 80.1 16 -0.6 31
17:25 1019 30.09 848 25.04 26.8 80.2 17 -0 31.9
17:30 1019 30.09 848 25.04 26.8 80.2 16 -1 30.3
17:35 1019 30.09 848 25.04 26.8 80.2 17 -0.3 31.4
17:40 1019 30.09 848 25.04 26.4 79.5 16 -1.1 30
17:45 1019 30.09 848 25.04 26.4 79.5 17 -0.5 31.2
17:50 1019 30.09 848 25.04 26.6 79.9 18 0.3 32.5
17:55 1019 30.09 848 25.04 26.8 80.3 16 -1.2 29.8
18:00 1019 30.09 848 25.04 26.6 79.8 17 -0.5 31.1
18:05 1019 30.09 848 25.04 26.4 79.6 17 -0.2 31.7
18:10 1019 30.09 848 25.04 26.6 79.8 16 -1 30.3
18:15 1019 30.09 848 25.04 26.7 80.1 17 0.2 32.3
18:20 1019 30.09 848 25.04 26.1 79.1 18 0.3 32.6
18:25 1019 30.09 848 25.04 26.1 79 18 -0.1 31.8
18:30 1019 30.09 848 25.04 26 78.8 17 -0.7 30.8
18:35 1019 30.09 848 25.04 26.2 79.2 17 -0.2 31.7
18:40 1019 30.09 848 25.04 26.3 79.3 15 -2 28.4
18:45 1019 30.09 848 25.04 26.1 79 18 0.2 32.4
18:50 1018 30.06 848 25.04 25.6 78 17 -0.7 30.7
18:55 1018 30.06 848 25.04 24.9 76.8 18 -0.8 30.6
19:00 1018 30.06 848 25.04 24.8 76.7 18 -0.7 30.7
19:05 1018 30.06 848 25.04 24.8 76.6 19 -0.1 31.8
19:10 1018 30.06 848 25.04 24.8 76.6 19 -0.2 31.6
19:15 1018 30.06 848 25.04 24.7 76.5 19 -0.4 31.2
19:20 1018 30.06 848 25.04 24.7 76.5 18 -0.9 30.4
19:25 1018 30.06 848 25.04 24.6 76.3 19 -0.3 31.4
19:30 1018 30.06 848 25.04 24.6 76.3 19 -0.3 31.5
19:35 1018 30.06 848 25.04 24.6 76.2 19 -0.4 31.2
19:40 1018 30.06 848 25.04 24.5 76 23 2.4 36.3
19:45 1018 30.06 848 25.04 24.3 75.7 21 0.8 33.4
19:50 1018 30.06 848 25.04 24 75.2 24 2.1 35.9
19:55 1018 30.06 848 25.04 23.7 74.7 24 2 35.6
20:00 1018 30.06 848 25.04 23.6 74.4 24 2.3 36.1
20:05 1018 30.06 848 25.04 23.4 74.1 28 4 39.2
20:10 1018 30.06 848 25.04 23.1 73.7 26 2.9 37.2
20:15 1018 30.06 848 25.04 22.7 72.8 28 3.7 38.6
20:20 1018 30.06 848 25.04 22 71.5 29 3.5 38.2
20:25 1018 30.06 848 25.04 21.5 70.7 29 2.8 37
20:30 1018 30.06 848 25.04 21.1 69.9 30 2.8 37
20:35 1018 30.06 848 25.04 20.3 68.5 35 4.4 39.9
20:40 1018 30.06 848 25.04 19.7 67.5 34 3.7 38.7
20:45 1018 30.06 848 25.04 19.5 67.1 33 2.8 37
20:50 1018 30.06 848 25.04 19.1 66.5 34 2.9 37.2
20:55 1018 30.06 848 25.04 18.9 66 33 2.6 36.6
21:00 1018 30.06 848 25.04 18.7 65.7 37 4 39.2
21:05 1019 30.09 848 25.04 18.1 64.6 38 3.8 38.9
21:10 1019 30.09 848 25.04 17.8 64.1 37 3.2 37.8
21:15 1019 30.09 848 25.04 17.9 64.2 35 2.3 36.2
21:20 1019 30.09 848 25.04 17.8 64 36 2.7 36.8
21:25 1019 30.09 848 25.04 18 64.4 30 0.5 32.8
21:30 1019 30.09 848 25.04 18.2 64.8 31 0.9 33.7
21:35 1019 30.09 848 25.04 17.9 64.1 31 0.6 33.1
21:40 1019 30.09 848 25.04 17.9 64.3 30 0.1 32.1
21:45 1019 30.09 848 25.04 18 64.4 30 0.2 32.3
21:50 1019 30.09 848 25.04 17.9 64.3 30 0.4 32.8
21:55 1019 30.09 848 25.04 17.6 63.7 31 0.5 32.9
22:00 1019 30.09 848 25.04 17.2 63 32 0.4 32.7
22:05 1019 30.09 848 25.04 16.9 62.4 33 0.5 32.9
22:10 1019 30.09 848 25.04 16.6 61.9 33 0.4 32.8
22:15 1019 30.09 848 25.04 16.4 61.6 34 0.5 32.9
22:20 1019 30.09 848 25.04 16.3 61.3 33 0.1 32.3
22:25 1019 30.09 848 25.04 16.5 61.6 33 0.1 32.1
22:30 1019 30.09 848 25.04 16.7 62 32 0 32.1
22:35 1019 30.09 848 25.04 16.6 61.9 32 -0 32
22:40 1019 30.09 848 25.04 16.6 61.9 31 -0.3 31.4
22:45 1019 30.09 848 25.04 16.6 61.9 32 -0.1 31.8
22:50 1019 30.09 848 25.04 16.5 61.8 32 -0.1 31.8
22:55 1019 30.09 848 25.04 16.5 61.7 31 -0.4 31.2
23:00 1019 30.09 848 25.04 16.4 61.5 32 -0.2 31.7
23:05 1019 30.09 848 25.04 16.3 61.3 32 -0.2 31.6
23:10 1019 30.09 848 25.04 16 60.9 33 -0.2 31.7
23:15 1019 30.09 848 25.04 15.9 60.6 32 -0.5 31.1
23:20 1019 30.09 848 25.04 16 60.8 32 -0.5 31.1
23:25 1019 30.09 848 25.04 16 60.8 32 -0.7 30.7
23:30 1019 30.09 848 25.04 16.2 61.1 31 -0.8 30.6
23:35 1019 30.09 848 25.04 16.4 61.4 31 -0.8 30.5
23:40 1019 30.09 848 25.04 16.5 61.7 31 -0.6 31
23:45 1019 30.09 848 25.04 16.4 61.5 31 -0.6 30.9
23:50 1019 30.09 848 25.04 16.3 61.4 31 -0.6 30.9
23:55 1019 30.09 848 25.04 16.2 61.2 32 -0.4 31.3
24:00 1019 30.09 848 25.04 16.1 60.9 32 -0.6 31